sensor_id;sensor_type;location;lat;lon;timestamp;temperature;humidity
7708;DHT22;3896;48.758;8.888;2023-05-29T00:00:06;13.00;68.10
7708;DHT22;3896;48.758;8.888;2023-05-29T00:02:35;13.00;68.40
7708;DHT22;3896;48.758;8.888;2023-05-29T00:05:01;12.90;68.30
7708;DHT22;3896;48.758;8.888;2023-05-29T00:07:31;12.90;68.50
7708;DHT22;3896;48.758;8.888;2023-05-29T00:09:58;12.80;68.80
7708;DHT22;3896;48.758;8.888;2023-05-29T00:12:24;12.80;68.80
7708;DHT22;3896;48.758;8.888;2023-05-29T00:14:49;12.70;69.00
7708;DHT22;3896;48.758;8.888;2023-05-29T00:17:15;12.70;69.20
7708;DHT22;3896;48.758;8.888;2023-05-29T00:19:42;12.60;69.10
7708;DHT22;3896;48.758;8.888;2023-05-29T00:22:08;12.60;69.40
7708;DHT22;3896;48.758;8.888;2023-05-29T00:24:33;12.50;69.40
7708;DHT22;3896;48.758;8.888;2023-05-29T00:26:59;12.50;69.50
7708;DHT22;3896;48.758;8.888;2023-05-29T00:29:24;12.50;70.10
7708;DHT22;3896;48.758;8.888;2023-05-29T00:31:51;12.40;70.20
7708;DHT22;3896;48.758;8.888;2023-05-29T00:34:19;12.40;70.50
7708;DHT22;3896;48.758;8.888;2023-05-29T00:36:44;12.30;70.50
7708;DHT22;3896;48.758;8.888;2023-05-29T00:39:11;12.20;70.90
7708;DHT22;3896;48.758;8.888;2023-05-29T00:41:37;12.20;71.50
7708;DHT22;3896;48.758;8.888;2023-05-29T00:44:03;12.20;71.40
7708;DHT22;3896;48.758;8.888;2023-05-29T00:46:30;12.10;71.90
7708;DHT22;3896;48.758;8.888;2023-05-29T00:48:58;12.10;72.00
7708;DHT22;3896;48.758;8.888;2023-05-29T00:51:24;12.10;72.20
7708;DHT22;3896;48.758;8.888;2023-05-29T00:53:51;12.00;72.30
7708;DHT22;3896;48.758;8.888;2023-05-29T00:56:17;12.00;72.50
7708;DHT22;3896;48.758;8.888;2023-05-29T00:58:44;11.90;72.50
7708;DHT22;3896;48.758;8.888;2023-05-29T01:01:09;11.90;73.00
7708;DHT22;3896;48.758;8.888;2023-05-29T01:03:36;11.90;73.10
7708;DHT22;3896;48.758;8.888;2023-05-29T01:06:02;11.80;73.10
7708;DHT22;3896;48.758;8.888;2023-05-29T01:08:28;11.80;73.50
7708;DHT22;3896;48.758;8.888;2023-05-29T01:11:10;11.70;73.70
7708;DHT22;3896;48.758;8.888;2023-05-29T01:13:41;11.70;73.80
7708;DHT22;3896;48.758;8.888;2023-05-29T01:16:13;11.60;73.80
7708;DHT22;3896;48.758;8.888;2023-05-29T01:18:52;11.60;74.10
7708;DHT22;3896;48.758;8.888;2023-05-29T01:26:51;11.40;75.00
7708;DHT22;3896;48.758;8.888;2023-05-29T01:29:26;11.30;74.50
7708;DHT22;3896;48.758;8.888;2023-05-29T01:31:52;11.30;75.00
7708;DHT22;3896;48.758;8.888;2023-05-29T01:34:18;11.30;75.30
7708;DHT22;3896;48.758;8.888;2023-05-29T01:36:44;11.20;75.40
7708;DHT22;3896;48.758;8.888;2023-05-29T01:39:12;11.20;75.50
7708;DHT22;3896;48.758;8.888;2023-05-29T01:41:38;11.20;76.00
7708;DHT22;3896;48.758;8.888;2023-05-29T01:44:07;11.10;76.40
7708;DHT22;3896;48.758;8.888;2023-05-29T01:46:37;11.10;76.70
7708;DHT22;3896;48.758;8.888;2023-05-29T01:49:04;11.00;76.40
7708;DHT22;3896;48.758;8.888;2023-05-29T01:51:30;11.00;77.40
7708;DHT22;3896;48.758;8.888;2023-05-29T01:53:57;11.00;78.00
7708;DHT22;3896;48.758;8.888;2023-05-29T01:56:24;10.90;77.80
7708;DHT22;3896;48.758;8.888;2023-05-29T01:58:53;10.90;78.10
7708;DHT22;3896;48.758;8.888;2023-05-29T02:01:20;10.90;78.20
7708;DHT22;3896;48.758;8.888;2023-05-29T02:03:46;10.90;78.30
7708;DHT22;3896;48.758;8.888;2023-05-29T02:06:12;10.80;79.00
7708;DHT22;3896;48.758;8.888;2023-05-29T02:08:37;10.80;79.50
7708;DHT22;3896;48.758;8.888;2023-05-29T02:11:03;10.70;79.40
7708;DHT22;3896;48.758;8.888;2023-05-29T02:13:28;10.70;79.40
7708;DHT22;3896;48.758;8.888;2023-05-29T02:15:54;10.70;80.10
7708;DHT22;3896;48.758;8.888;2023-05-29T02:18:20;10.60;80.40
7708;DHT22;3896;48.758;8.888;2023-05-29T02:20:46;10.60;80.80
7708;DHT22;3896;48.758;8.888;2023-05-29T02:23:12;10.60;80.60
7708;DHT22;3896;48.758;8.888;2023-05-29T02:25:37;10.50;81.40
7708;DHT22;3896;48.758;8.888;2023-05-29T02:28:04;10.50;81.40
7708;DHT22;3896;48.758;8.888;2023-05-29T02:30:30;10.40;81.70
7708;DHT22;3896;48.758;8.888;2023-05-29T02:32:55;10.40;81.80
7708;DHT22;3896;48.758;8.888;2023-05-29T02:35:21;10.40;82.10
7708;DHT22;3896;48.758;8.888;2023-05-29T02:37:49;10.40;82.10
7708;DHT22;3896;48.758;8.888;2023-05-29T02:40:14;10.30;82.60
7708;DHT22;3896;48.758;8.888;2023-05-29T02:42:40;10.30;83.20
7708;DHT22;3896;48.758;8.888;2023-05-29T02:45:06;10.30;83.10
7708;DHT22;3896;48.758;8.888;2023-05-29T02:47:31;10.20;83.80
7708;DHT22;3896;48.758;8.888;2023-05-29T02:49:57;10.20;83.60
7708;DHT22;3896;48.758;8.888;2023-05-29T02:52:23;10.10;83.50
7708;DHT22;3896;48.758;8.888;2023-05-29T02:54:49;10.10;83.70
7708;DHT22;3896;48.758;8.888;2023-05-29T02:57:14;10.10;84.00
7708;DHT22;3896;48.758;8.888;2023-05-29T02:59:41;10.10;84.20
7708;DHT22;3896;48.758;8.888;2023-05-29T03:02:06;10.10;84.20
7708;DHT22;3896;48.758;8.888;2023-05-29T03:04:32;10.00;84.20
7708;DHT22;3896;48.758;8.888;2023-05-29T03:06:57;10.00;84.60
7708;DHT22;3896;48.758;8.888;2023-05-29T03:09:23;9.90;85.60
7708;DHT22;3896;48.758;8.888;2023-05-29T03:11:49;9.90;86.20
7708;DHT22;3896;48.758;8.888;2023-05-29T03:14:16;9.90;86.70
7708;DHT22;3896;48.758;8.888;2023-05-29T03:16:42;9.80;86.90
7708;DHT22;3896;48.758;8.888;2023-05-29T03:19:08;9.80;86.80
7708;DHT22;3896;48.758;8.888;2023-05-29T03:21:34;9.80;87.30
7708;DHT22;3896;48.758;8.888;2023-05-29T03:24:01;9.70;87.80
7708;DHT22;3896;48.758;8.888;2023-05-29T03:26:28;9.70;88.60
7708;DHT22;3896;48.758;8.888;2023-05-29T03:28:53;9.70;88.90
7708;DHT22;3896;48.758;8.888;2023-05-29T03:31:19;9.70;88.90
7708;DHT22;3896;48.758;8.888;2023-05-29T03:33:44;9.60;88.30
7708;DHT22;3896;48.758;8.888;2023-05-29T03:36:11;9.60;88.10
7708;DHT22;3896;48.758;8.888;2023-05-29T03:38:36;9.60;88.70
7708;DHT22;3896;48.758;8.888;2023-05-29T03:41:02;9.60;89.40
7708;DHT22;3896;48.758;8.888;2023-05-29T03:43:28;9.50;89.40
7708;DHT22;3896;48.758;8.888;2023-05-29T03:45:53;9.50;89.40
7708;DHT22;3896;48.758;8.888;2023-05-29T03:48:19;9.50;89.40
7708;DHT22;3896;48.758;8.888;2023-05-29T03:50:46;9.50;90.00
7708;DHT22;3896;48.758;8.888;2023-05-29T03:53:11;9.40;90.50
7708;DHT22;3896;48.758;8.888;2023-05-29T03:55:37;9.40;90.40
7708;DHT22;3896;48.758;8.888;2023-05-29T03:58:02;9.40;90.50
7708;DHT22;3896;48.758;8.888;2023-05-29T04:00:28;9.40;90.50
7708;DHT22;3896;48.758;8.888;2023-05-29T04:02:55;9.30;90.90
7708;DHT22;3896;48.758;8.888;2023-05-29T04:05:20;9.30;91.00
7708;DHT22;3896;48.758;8.888;2023-05-29T04:07:46;9.30;91.50
7708;DHT22;3896;48.758;8.888;2023-05-29T04:10:11;9.30;91.70
7708;DHT22;3896;48.758;8.888;2023-05-29T04:12:37;9.30;91.80
7708;DHT22;3896;48.758;8.888;2023-05-29T04:15:03;9.30;91.90
7708;DHT22;3896;48.758;8.888;2023-05-29T04:17:29;9.30;91.90
7708;DHT22;3896;48.758;8.888;2023-05-29T04:19:54;9.30;92.00
7708;DHT22;3896;48.758;8.888;2023-05-29T04:22:20;9.30;92.70
7708;DHT22;3896;48.758;8.888;2023-05-29T04:24:46;9.30;93.00
7708;DHT22;3896;48.758;8.888;2023-05-29T04:27:12;9.30;93.10
7708;DHT22;3896;48.758;8.888;2023-05-29T04:29:42;9.30;93.50
7708;DHT22;3896;48.758;8.888;2023-05-29T04:32:08;9.30;93.50
7708;DHT22;3896;48.758;8.888;2023-05-29T04:34:39;9.30;94.00
7708;DHT22;3896;48.758;8.888;2023-05-29T04:37:05;9.30;94.30
7708;DHT22;3896;48.758;8.888;2023-05-29T04:39:31;9.30;94.70
7708;DHT22;3896;48.758;8.888;2023-05-29T04:41:57;9.30;95.10
7708;DHT22;3896;48.758;8.888;2023-05-29T04:44:24;9.40;95.40
7708;DHT22;3896;48.758;8.888;2023-05-29T04:46:54;9.40;95.50
7708;DHT22;3896;48.758;8.888;2023-05-29T04:49:21;9.40;95.10
7708;DHT22;3896;48.758;8.888;2023-05-29T04:51:47;9.40;94.90
7708;DHT22;3896;48.758;8.888;2023-05-29T04:54:12;9.40;95.30
7708;DHT22;3896;48.758;8.888;2023-05-29T04:56:38;9.50;95.30
7708;DHT22;3896;48.758;8.888;2023-05-29T04:59:07;9.50;94.90
7708;DHT22;3896;48.758;8.888;2023-05-29T05:01:33;9.50;94.90
7708;DHT22;3896;48.758;8.888;2023-05-29T05:03:59;9.60;94.70
7708;DHT22;3896;48.758;8.888;2023-05-29T05:06:25;9.60;94.60
7708;DHT22;3896;48.758;8.888;2023-05-29T05:08:51;9.70;94.50
7708;DHT22;3896;48.758;8.888;2023-05-29T05:11:18;9.70;94.40
7708;DHT22;3896;48.758;8.888;2023-05-29T05:13:44;9.80;94.40
7708;DHT22;3896;48.758;8.888;2023-05-29T05:16:09;9.80;94.40
7708;DHT22;3896;48.758;8.888;2023-05-29T05:18:36;9.80;94.40
7708;DHT22;3896;48.758;8.888;2023-05-29T05:21:02;9.90;94.50
7708;DHT22;3896;48.758;8.888;2023-05-29T05:23:29;9.90;94.90
7708;DHT22;3896;48.758;8.888;2023-05-29T05:25:55;10.00;94.50
7708;DHT22;3896;48.758;8.888;2023-05-29T05:28:21;10.00;94.60
7708;DHT22;3896;48.758;8.888;2023-05-29T05:30:46;10.10;94.80
7708;DHT22;3896;48.758;8.888;2023-05-29T05:33:12;10.10;94.70
7708;DHT22;3896;48.758;8.888;2023-05-29T05:35:38;10.20;94.70
7708;DHT22;3896;48.758;8.888;2023-05-29T05:38:03;10.20;94.60
7708;DHT22;3896;48.758;8.888;2023-05-29T05:40:29;10.30;94.60
7708;DHT22;3896;48.758;8.888;2023-05-29T05:42:55;10.40;94.40
7708;DHT22;3896;48.758;8.888;2023-05-29T05:45:20;10.40;94.20
7708;DHT22;3896;48.758;8.888;2023-05-29T05:47:46;10.50;93.90
7708;DHT22;3896;48.758;8.888;2023-05-29T05:50:12;10.60;93.80
7708;DHT22;3896;48.758;8.888;2023-05-29T05:52:37;10.60;93.60
7708;DHT22;3896;48.758;8.888;2023-05-29T05:55:03;10.70;93.90
7708;DHT22;3896;48.758;8.888;2023-05-29T05:57:29;10.80;93.40
7708;DHT22;3896;48.758;8.888;2023-05-29T05:59:58;10.80;93.60
7708;DHT22;3896;48.758;8.888;2023-05-29T06:02:23;10.90;93.20
7708;DHT22;3896;48.758;8.888;2023-05-29T06:04:49;11.00;93.10
7708;DHT22;3896;48.758;8.888;2023-05-29T06:07:15;11.00;93.00
7708;DHT22;3896;48.758;8.888;2023-05-29T06:09:40;11.10;93.10
7708;DHT22;3896;48.758;8.888;2023-05-29T06:12:07;11.20;93.40
7708;DHT22;3896;48.758;8.888;2023-05-29T06:14:34;11.30;93.70
7708;DHT22;3896;48.758;8.888;2023-05-29T06:17:00;11.40;94.00
7708;DHT22;3896;48.758;8.888;2023-05-29T06:19:25;11.50;94.00
7708;DHT22;3896;48.758;8.888;2023-05-29T06:21:51;11.60;94.20
7708;DHT22;3896;48.758;8.888;2023-05-29T06:24:16;11.70;94.60
7708;DHT22;3896;48.758;8.888;2023-05-29T06:26:42;11.80;94.50
7708;DHT22;3896;48.758;8.888;2023-05-29T06:29:08;11.90;94.60
7708;DHT22;3896;48.758;8.888;2023-05-29T06:31:33;12.00;95.00
7708;DHT22;3896;48.758;8.888;2023-05-29T06:33:59;12.00;94.80
7708;DHT22;3896;48.758;8.888;2023-05-29T06:36:24;12.10;95.10
7708;DHT22;3896;48.758;8.888;2023-05-29T06:38:51;12.20;95.60
7708;DHT22;3896;48.758;8.888;2023-05-29T06:41:17;12.30;96.00
7708;DHT22;3896;48.758;8.888;2023-05-29T06:43:42;12.40;96.20
7708;DHT22;3896;48.758;8.888;2023-05-29T06:46:08;12.60;96.60
7708;DHT22;3896;48.758;8.888;2023-05-29T06:48:35;12.70;96.80
7708;DHT22;3896;48.758;8.888;2023-05-29T06:51:01;12.80;97.10
7708;DHT22;3896;48.758;8.888;2023-05-29T06:53:27;12.90;96.80
7708;DHT22;3896;48.758;8.888;2023-05-29T06:55:53;13.00;96.80
7708;DHT22;3896;48.758;8.888;2023-05-29T06:58:18;13.10;96.60
7708;DHT22;3896;48.758;8.888;2023-05-29T07:00:44;13.20;96.50
7708;DHT22;3896;48.758;8.888;2023-05-29T07:03:10;13.40;96.40
7708;DHT22;3896;48.758;8.888;2023-05-29T07:05:35;13.50;96.30
7708;DHT22;3896;48.758;8.888;2023-05-29T07:08:01;13.60;96.30
7708;DHT22;3896;48.758;8.888;2023-05-29T07:10:26;13.70;96.70
7708;DHT22;3896;48.758;8.888;2023-05-29T07:12:52;13.80;96.60
7708;DHT22;3896;48.758;8.888;2023-05-29T07:15:17;14.00;96.30
7708;DHT22;3896;48.758;8.888;2023-05-29T07:17:43;14.10;96.00
7708;DHT22;3896;48.758;8.888;2023-05-29T07:20:09;14.20;95.20
7708;DHT22;3896;48.758;8.888;2023-05-29T07:22:35;14.30;94.60
7708;DHT22;3896;48.758;8.888;2023-05-29T07:25:01;14.50;93.90
7708;DHT22;3896;48.758;8.888;2023-05-29T07:27:27;14.60;93.10
7708;DHT22;3896;48.758;8.888;2023-05-29T07:29:52;14.70;92.80
7708;DHT22;3896;48.758;8.888;2023-05-29T07:32:18;14.90;92.70
7708;DHT22;3896;48.758;8.888;2023-05-29T07:34:43;15.10;92.00
7708;DHT22;3896;48.758;8.888;2023-05-29T07:37:09;15.20;91.70
7708;DHT22;3896;48.758;8.888;2023-05-29T07:39:36;15.40;91.40
7708;DHT22;3896;48.758;8.888;2023-05-29T07:42:02;15.50;90.80
7708;DHT22;3896;48.758;8.888;2023-05-29T07:44:28;15.70;90.40
7708;DHT22;3896;48.758;8.888;2023-05-29T07:46:53;15.80;90.00
7708;DHT22;3896;48.758;8.888;2023-05-29T07:49:22;16.00;89.20
7708;DHT22;3896;48.758;8.888;2023-05-29T07:51:48;16.10;88.40
7708;DHT22;3896;48.758;8.888;2023-05-29T07:54:13;16.30;87.90
7708;DHT22;3896;48.758;8.888;2023-05-29T07:56:42;16.40;86.40
7708;DHT22;3896;48.758;8.888;2023-05-29T07:59:10;16.60;86.00
7708;DHT22;3896;48.758;8.888;2023-05-29T08:01:37;16.70;85.20
7708;DHT22;3896;48.758;8.888;2023-05-29T08:04:03;16.90;84.80
7708;DHT22;3896;48.758;8.888;2023-05-29T08:06:29;17.00;83.50
7708;DHT22;3896;48.758;8.888;2023-05-29T08:08:57;17.20;83.30
7708;DHT22;3896;48.758;8.888;2023-05-29T08:11:23;17.30;82.00
7708;DHT22;3896;48.758;8.888;2023-05-29T08:13:49;17.40;81.30
7708;DHT22;3896;48.758;8.888;2023-05-29T08:16:14;17.60;80.50
7708;DHT22;3896;48.758;8.888;2023-05-29T08:18:42;17.80;80.00
7708;DHT22;3896;48.758;8.888;2023-05-29T08:21:07;18.00;78.90
7708;DHT22;3896;48.758;8.888;2023-05-29T08:23:34;18.10;78.40
7708;DHT22;3896;48.758;8.888;2023-05-29T08:26:00;18.30;78.20
7708;DHT22;3896;48.758;8.888;2023-05-29T08:28:28;18.50;78.10
7708;DHT22;3896;48.758;8.888;2023-05-29T08:30:53;18.60;76.80
7708;DHT22;3896;48.758;8.888;2023-05-29T08:33:19;18.70;76.20
7708;DHT22;3896;48.758;8.888;2023-05-29T08:35:44;18.90;75.80
7708;DHT22;3896;48.758;8.888;2023-05-29T08:38:10;19.00;75.10
7708;DHT22;3896;48.758;8.888;2023-05-29T08:40:35;19.20;74.80
7708;DHT22;3896;48.758;8.888;2023-05-29T08:43:04;19.30;73.60
7708;DHT22;3896;48.758;8.888;2023-05-29T08:45:34;19.50;73.10
7708;DHT22;3896;48.758;8.888;2023-05-29T08:48:01;19.70;72.20
7708;DHT22;3896;48.758;8.888;2023-05-29T08:50:28;19.90;71.80
7708;DHT22;3896;48.758;8.888;2023-05-29T08:52:53;20.10;71.70
7708;DHT22;3896;48.758;8.888;2023-05-29T08:55:19;20.30;70.80
7708;DHT22;3896;48.758;8.888;2023-05-29T08:57:45;20.40;70.10
7708;DHT22;3896;48.758;8.888;2023-05-29T09:00:15;20.50;69.30
7708;DHT22;3896;48.758;8.888;2023-05-29T09:02:45;20.70;68.50
7708;DHT22;3896;48.758;8.888;2023-05-29T09:05:14;20.90;68.00
7708;DHT22;3896;48.758;8.888;2023-05-29T09:07:40;21.10;67.30
7708;DHT22;3896;48.758;8.888;2023-05-29T09:10:07;21.20;66.10
7708;DHT22;3896;48.758;8.888;2023-05-29T09:12:34;21.40;65.70
7708;DHT22;3896;48.758;8.888;2023-05-29T09:15:01;21.60;65.10
7708;DHT22;3896;48.758;8.888;2023-05-29T09:17:31;21.70;64.30
7708;DHT22;3896;48.758;8.888;2023-05-29T09:19:58;21.80;63.60
7708;DHT22;3896;48.758;8.888;2023-05-29T09:22:23;22.00;62.90
7708;DHT22;3896;48.758;8.888;2023-05-29T09:24:49;22.10;62.40
7708;DHT22;3896;48.758;8.888;2023-05-29T09:27:16;22.20;62.10
7708;DHT22;3896;48.758;8.888;2023-05-29T09:29:44;22.40;61.60
7708;DHT22;3896;48.758;8.888;2023-05-29T09:32:14;22.50;61.40
7708;DHT22;3896;48.758;8.888;2023-05-29T09:34:42;22.70;61.00
7708;DHT22;3896;48.758;8.888;2023-05-29T09:37:09;22.80;60.70
7708;DHT22;3896;48.758;8.888;2023-05-29T09:39:57;23.00;60.40
7708;DHT22;3896;48.758;8.888;2023-05-29T09:42:22;23.10;60.00
7708;DHT22;3896;48.758;8.888;2023-05-29T09:44:49;23.30;59.50
7708;DHT22;3896;48.758;8.888;2023-05-29T09:47:19;23.40;59.20
7708;DHT22;3896;48.758;8.888;2023-05-29T09:49:45;23.60;58.60
7708;DHT22;3896;48.758;8.888;2023-05-29T09:52:12;23.70;58.40
7708;DHT22;3896;48.758;8.888;2023-05-29T09:54:43;23.80;57.90
7708;DHT22;3896;48.758;8.888;2023-05-29T09:57:13;24.00;57.50
7708;DHT22;3896;48.758;8.888;2023-05-29T09:59:45;24.10;57.30
7708;DHT22;3896;48.758;8.888;2023-05-29T10:02:16;24.30;57.00
7708;DHT22;3896;48.758;8.888;2023-05-29T10:04:43;24.50;56.60
7708;DHT22;3896;48.758;8.888;2023-05-29T10:07:28;24.60;56.30
7708;DHT22;3896;48.758;8.888;2023-05-29T10:10:02;24.70;55.80
7708;DHT22;3896;48.758;8.888;2023-05-29T10:12:29;24.90;55.20
7708;DHT22;3896;48.758;8.888;2023-05-29T10:14:57;25.00;55.20
7708;DHT22;3896;48.758;8.888;2023-05-29T10:17:28;25.20;54.80
7708;DHT22;3896;48.758;8.888;2023-05-29T10:19:56;25.20;54.10
7708;DHT22;3896;48.758;8.888;2023-05-29T10:22:24;25.40;54.00
7708;DHT22;3896;48.758;8.888;2023-05-29T10:24:52;25.60;53.50
7708;DHT22;3896;48.758;8.888;2023-05-29T10:27:18;25.70;53.20
7708;DHT22;3896;48.758;8.888;2023-05-29T10:30:06;25.80;52.90
7708;DHT22;3896;48.758;8.888;2023-05-29T10:32:58;26.00;52.70
7708;DHT22;3896;48.758;8.888;2023-05-29T10:35:31;26.10;52.40
7708;DHT22;3896;48.758;8.888;2023-05-29T10:38:13;26.30;51.90
7708;DHT22;3896;48.758;8.888;2023-05-29T10:40:40;26.50;51.40
7708;DHT22;3896;48.758;8.888;2023-05-29T10:43:06;26.60;50.60
7708;DHT22;3896;48.758;8.888;2023-05-29T10:50:46;26.90;49.70
7708;DHT22;3896;48.758;8.888;2023-05-29T10:53:24;27.00;49.60
7708;DHT22;3896;48.758;8.888;2023-05-29T10:55:51;27.10;49.50
7708;DHT22;3896;48.758;8.888;2023-05-29T10:58:24;27.20;49.50
7708;DHT22;3896;48.758;8.888;2023-05-29T11:00:51;27.40;49.20
7708;DHT22;3896;48.758;8.888;2023-05-29T11:03:29;27.40;48.80
7708;DHT22;3896;48.758;8.888;2023-05-29T11:10:59;27.80;48.10
7708;DHT22;3896;48.758;8.888;2023-05-29T11:13:38;27.90;47.80
7708;DHT22;3896;48.758;8.888;2023-05-29T11:16:35;28.00;47.80
7708;DHT22;3896;48.758;8.888;2023-05-29T11:19:06;28.10;47.20
7708;DHT22;3896;48.758;8.888;2023-05-29T11:21:57;28.20;46.90
7708;DHT22;3896;48.758;8.888;2023-05-29T11:24:28;28.30;47.00
7708;DHT22;3896;48.758;8.888;2023-05-29T11:26:58;28.50;46.40
7708;DHT22;3896;48.758;8.888;2023-05-29T11:29:28;28.60;45.90
7708;DHT22;3896;48.758;8.888;2023-05-29T11:31:58;28.70;44.60
7708;DHT22;3896;48.758;8.888;2023-05-29T11:34:29;28.80;43.90
7708;DHT22;3896;48.758;8.888;2023-05-29T11:36:57;28.90;43.60
7708;DHT22;3896;48.758;8.888;2023-05-29T11:39:23;29.00;43.10
7708;DHT22;3896;48.758;8.888;2023-05-29T11:41:53;29.10;42.80
7708;DHT22;3896;48.758;8.888;2023-05-29T11:44:19;29.20;42.00
7708;DHT22;3896;48.758;8.888;2023-05-29T11:46:45;29.30;41.40
7708;DHT22;3896;48.758;8.888;2023-05-29T11:49:11;29.50;41.30
7708;DHT22;3896;48.758;8.888;2023-05-29T11:51:37;29.60;41.70
7708;DHT22;3896;48.758;8.888;2023-05-29T11:54:03;29.70;41.50
7708;DHT22;3896;48.758;8.888;2023-05-29T11:56:29;29.90;41.90
7708;DHT22;3896;48.758;8.888;2023-05-29T11:58:58;30.00;41.80
7708;DHT22;3896;48.758;8.888;2023-05-29T12:01:25;30.10;40.90
7708;DHT22;3896;48.758;8.888;2023-05-29T12:03:52;30.20;40.90
7708;DHT22;3896;48.758;8.888;2023-05-29T12:06:34;30.40;40.50
7708;DHT22;3896;48.758;8.888;2023-05-29T12:09:02;30.50;40.30
7708;DHT22;3896;48.758;8.888;2023-05-29T12:11:29;30.60;40.00
7708;DHT22;3896;48.758;8.888;2023-05-29T12:13:59;30.70;39.50
7708;DHT22;3896;48.758;8.888;2023-05-29T12:16:29;30.80;39.10
7708;DHT22;3896;48.758;8.888;2023-05-29T12:18:56;30.90;38.60
7708;DHT22;3896;48.758;8.888;2023-05-29T12:21:22;31.10;38.20
7708;DHT22;3896;48.758;8.888;2023-05-29T12:23:48;31.20;37.30
7708;DHT22;3896;48.758;8.888;2023-05-29T12:26:13;31.30;36.90
7708;DHT22;3896;48.758;8.888;2023-05-29T12:28:44;31.40;36.70
7708;DHT22;3896;48.758;8.888;2023-05-29T12:31:10;31.40;36.30
7708;DHT22;3896;48.758;8.888;2023-05-29T12:33:42;31.50;36.60
7708;DHT22;3896;48.758;8.888;2023-05-29T12:36:09;31.60;36.10
7708;DHT22;3896;48.758;8.888;2023-05-29T12:38:47;31.70;36.30
7708;DHT22;3896;48.758;8.888;2023-05-29T12:41:29;31.80;36.30
7708;DHT22;3896;48.758;8.888;2023-05-29T12:43:56;31.90;36.30
7708;DHT22;3896;48.758;8.888;2023-05-29T12:46:26;32.10;35.40
7708;DHT22;3896;48.758;8.888;2023-05-29T12:48:56;32.10;34.70
7708;DHT22;3896;48.758;8.888;2023-05-29T12:51:23;32.30;33.90
7708;DHT22;3896;48.758;8.888;2023-05-29T12:53:49;32.40;33.60
7708;DHT22;3896;48.758;8.888;2023-05-29T12:56:15;32.50;33.00
7708;DHT22;3896;48.758;8.888;2023-05-29T12:58:40;32.60;32.70
7708;DHT22;3896;48.758;8.888;2023-05-29T13:01:12;32.70;31.80
7708;DHT22;3896;48.758;8.888;2023-05-29T13:03:39;32.80;30.90
7708;DHT22;3896;48.758;8.888;2023-05-29T13:06:05;33.00;30.40
7708;DHT22;3896;48.758;8.888;2023-05-29T13:08:31;33.10;30.20
7708;DHT22;3896;48.758;8.888;2023-05-29T13:10:56;33.20;30.20
7708;DHT22;3896;48.758;8.888;2023-05-29T13:13:22;33.30;30.00
7708;DHT22;3896;48.758;8.888;2023-05-29T13:15:47;33.30;29.60
7708;DHT22;3896;48.758;8.888;2023-05-29T13:18:13;33.40;29.70
7708;DHT22;3896;48.758;8.888;2023-05-29T13:20:38;33.50;29.70
7708;DHT22;3896;48.758;8.888;2023-05-29T13:23:05;33.60;29.50
7708;DHT22;3896;48.758;8.888;2023-05-29T13:25:32;33.70;29.80
7708;DHT22;3896;48.758;8.888;2023-05-29T13:27:58;33.80;29.10
7708;DHT22;3896;48.758;8.888;2023-05-29T13:30:23;33.90;29.20
7708;DHT22;3896;48.758;8.888;2023-05-29T13:32:50;33.90;29.70
7708;DHT22;3896;48.758;8.888;2023-05-29T13:35:16;33.90;29.30
7708;DHT22;3896;48.758;8.888;2023-05-29T13:37:42;34.00;29.00
7708;DHT22;3896;48.758;8.888;2023-05-29T13:40:10;34.00;28.90
7708;DHT22;3896;48.758;8.888;2023-05-29T13:42:35;34.10;28.80
7708;DHT22;3896;48.758;8.888;2023-05-29T13:45:01;34.10;28.50
7708;DHT22;3896;48.758;8.888;2023-05-29T13:47:27;34.20;28.50
7708;DHT22;3896;48.758;8.888;2023-05-29T13:49:56;34.20;28.70
7708;DHT22;3896;48.758;8.888;2023-05-29T13:52:22;34.30;28.70
7708;DHT22;3896;48.758;8.888;2023-05-29T13:54:47;34.30;28.50
7708;DHT22;3896;48.758;8.888;2023-05-29T13:57:13;34.40;28.30
7708;DHT22;3896;48.758;8.888;2023-05-29T13:59:38;34.50;28.30
7708;DHT22;3896;48.758;8.888;2023-05-29T14:02:04;34.50;28.20
7708;DHT22;3896;48.758;8.888;2023-05-29T14:04:30;34.60;28.20
7708;DHT22;3896;48.758;8.888;2023-05-29T14:06:56;34.60;28.20
7708;DHT22;3896;48.758;8.888;2023-05-29T14:09:22;34.60;28.30
7708;DHT22;3896;48.758;8.888;2023-05-29T14:11:56;34.60;28.00
7708;DHT22;3896;48.758;8.888;2023-05-29T14:14:22;34.60;28.00
7708;DHT22;3896;48.758;8.888;2023-05-29T14:16:49;34.70;27.90
7708;DHT22;3896;48.758;8.888;2023-05-29T14:19:15;34.80;28.20
7708;DHT22;3896;48.758;8.888;2023-05-29T14:21:40;34.90;27.80
7708;DHT22;3896;48.758;8.888;2023-05-29T14:24:06;34.90;27.90
7708;DHT22;3896;48.758;8.888;2023-05-29T14:26:33;35.00;27.70
7708;DHT22;3896;48.758;8.888;2023-05-29T14:28:58;35.00;27.60
7708;DHT22;3896;48.758;8.888;2023-05-29T14:31:24;35.10;27.50
7708;DHT22;3896;48.758;8.888;2023-05-29T14:33:49;35.10;27.40
7708;DHT22;3896;48.758;8.888;2023-05-29T14:36:15;35.20;27.70
7708;DHT22;3896;48.758;8.888;2023-05-29T14:38:40;35.20;28.30
7708;DHT22;3896;48.758;8.888;2023-05-29T14:41:08;35.30;27.50
7708;DHT22;3896;48.758;8.888;2023-05-29T14:43:33;35.40;27.50
7708;DHT22;3896;48.758;8.888;2023-05-29T14:45:59;35.30;27.20
7708;DHT22;3896;48.758;8.888;2023-05-29T14:48:24;35.30;27.20
7708;DHT22;3896;48.758;8.888;2023-05-29T14:50:50;35.30;27.30
7708;DHT22;3896;48.758;8.888;2023-05-29T14:53:15;35.30;27.30
7708;DHT22;3896;48.758;8.888;2023-05-29T14:55:41;35.30;27.00
7708;DHT22;3896;48.758;8.888;2023-05-29T14:58:06;35.30;26.90
7708;DHT22;3896;48.758;8.888;2023-05-29T15:00:32;35.30;27.00
7708;DHT22;3896;48.758;8.888;2023-05-29T15:02:58;35.40;27.30
7708;DHT22;3896;48.758;8.888;2023-05-29T15:05:27;35.30;27.20
7708;DHT22;3896;48.758;8.888;2023-05-29T15:07:54;35.30;27.00
7708;DHT22;3896;48.758;8.888;2023-05-29T15:10:23;35.30;27.00
7708;DHT22;3896;48.758;8.888;2023-05-29T15:12:52;35.30;27.30
7708;DHT22;3896;48.758;8.888;2023-05-29T15:15:23;35.30;27.40
7708;DHT22;3896;48.758;8.888;2023-05-29T15:17:49;35.20;27.20
7708;DHT22;3896;48.758;8.888;2023-05-29T15:20:19;35.20;27.30
7708;DHT22;3896;48.758;8.888;2023-05-29T15:22:46;35.10;27.50
7708;DHT22;3896;48.758;8.888;2023-05-29T15:25:12;35.00;27.40
7708;DHT22;3896;48.758;8.888;2023-05-29T15:27:38;34.90;27.40
7708;DHT22;3896;48.758;8.888;2023-05-29T15:30:14;34.80;27.70
7708;DHT22;3896;48.758;8.888;2023-05-29T15:32:41;34.60;27.80
7708;DHT22;3896;48.758;8.888;2023-05-29T15:35:12;34.50;27.90
7708;DHT22;3896;48.758;8.888;2023-05-29T15:37:38;34.40;28.30
7708;DHT22;3896;48.758;8.888;2023-05-29T15:40:06;34.20;28.50
7708;DHT22;3896;48.758;8.888;2023-05-29T15:42:32;34.10;29.10
7708;DHT22;3896;48.758;8.888;2023-05-29T15:44:57;34.00;28.70
7708;DHT22;3896;48.758;8.888;2023-05-29T15:47:23;33.90;29.10
7708;DHT22;3896;48.758;8.888;2023-05-29T15:49:49;33.80;29.10
7708;DHT22;3896;48.758;8.888;2023-05-29T15:52:14;33.60;29.20
7708;DHT22;3896;48.758;8.888;2023-05-29T15:54:41;33.50;29.00
7708;DHT22;3896;48.758;8.888;2023-05-29T15:57:07;33.30;29.10
7708;DHT22;3896;48.758;8.888;2023-05-29T15:59:33;33.10;29.30
7708;DHT22;3896;48.758;8.888;2023-05-29T16:01:59;33.00;29.60
7708;DHT22;3896;48.758;8.888;2023-05-29T16:04:26;32.90;29.60
7708;DHT22;3896;48.758;8.888;2023-05-29T16:06:51;32.80;29.50
7708;DHT22;3896;48.758;8.888;2023-05-29T16:09:17;32.60;29.50
7708;DHT22;3896;48.758;8.888;2023-05-29T16:11:43;32.50;29.60
7708;DHT22;3896;48.758;8.888;2023-05-29T16:14:09;32.40;30.40
7708;DHT22;3896;48.758;8.888;2023-05-29T16:16:36;32.20;30.00
7708;DHT22;3896;48.758;8.888;2023-05-29T16:19:05;32.10;30.10